Terminal Aerodrome Forecast
Issued by NWS

Home | Current Version | Previous Version | Text Only | Print | Product List | Glossary On
Versions: 1 2 3 4 5 6 7 8 9 10 11 12 13 14 15
000
FTUS43 KBIS 301143
TAFMOT
TAF
KMOT 301143Z 3012/3112 26009KT P6SM BKN080
     FM301500 29011KT P6SM SCT080
     FM301700 30015G23KT P6SM SKC
     FM310100 28008KT P6SM FEW070
     FM310600 26007KT P6SM SCT070=

USA.gov is the U.S. government's official web portal to all federal, state and local government web resources and services.